Time;durP1;ratioP1;P1;durP2;ratioP2;P2;SDS_P1;SDS_P2;PMS_P1;PMS_P2;Temp;Humidity;BMP_temperature;BMP_pressure;BME280_temperature;BME280_humidity;BME280_pressure;Samples;Min_cycle;Max_cycle;Signal;HPM_P1;HPM_P2
2021/05/04 00:02:09;;;;;;;4.87;0.57;;;;;;;6.86;53.72;100090.41;1684598;85;21092;-86
2021/05/04 00:04:35;;;;;;;0.50;0.50;;;;;;;6.83;53.72;100085.76;1657630;85;21206;-83
2021/05/04 00:07:02;;;;;;;1.00;0.50;;;;;;;6.81;53.76;100082.45;1666681;85;21191;-85
2021/05/04 00:09:29;;;;;;;1.33;0.67;;;;;;;6.80;53.90;100086.12;1663625;85;21147;-83
2021/05/04 00:11:56;;;;;;;0.63;0.60;;;;;;;6.79;54.11;100079.66;1638172;84;21255;-84
2021/05/04 00:14:27;;;;;;;1.00;0.63;;;;;;;6.77;54.25;100081.14;1593712;89;21213;-84
2021/05/04 00:16:55;;;;;;;0.63;0.63;;;;;;;6.76;54.39;100083.96;1584792;88;21232;-84
2021/05/04 00:19:23;;;;;;;1.07;0.77;;;;;;;6.75;54.37;100085.79;1608883;88;21615;-86
2021/05/04 00:21:50;;;;;;;1.73;0.67;;;;;;;6.73;54.50;100086.97;1592385;89;21236;-85
2021/05/04 00:24:17;;;;;;;1.37;0.60;;;;;;;6.72;54.59;100094.06;1672718;85;21107;-84
2021/05/04 00:26:45;;;;;;;0.80;0.80;;;;;;;6.70;54.81;100089.94;1669226;85;21218;-85
2021/05/04 00:29:15;;;;;;;0.53;0.40;;;;;;;6.66;54.97;100090.77;1674248;85;21673;-84
2021/05/04 00:31:42;;;;;;;1.13;0.70;;;;;;;6.62;55.05;100090.28;1670424;85;21234;-84
2021/05/04 00:34:08;;;;;;;0.83;0.67;;;;;;;6.58;55.14;100086.83;1658072;85;21159;-86
2021/05/04 00:36:36;;;;;;;0.60;0.43;;;;;;;6.57;55.41;100087.81;1657684;85;22285;-84
2021/05/04 00:39:04;;;;;;;;;;;;;;;6.56;55.64;100096.77;1668535;85;21208;-86
2021/05/04 00:41:31;;;;;;;0.93;0.67;;;;;;;6.54;55.46;100096.11;1671122;84;20546;-85
2021/05/04 00:43:57;;;;;;;;;;;;;;;6.49;55.88;100094.45;1670928;85;21360;-88
2021/05/04 00:46:24;;;;;;;0.80;0.30;;;;;;;6.49;55.84;100102.40;1663624;85;20173;-85
2021/05/04 00:48:51;;;;;;;0.70;0.70;;;;;;;6.42;56.02;100096.45;1667042;85;21207;-84
2021/05/04 00:51:21;;;;;;;1.70;1.47;;;;;;;6.42;56.08;100098.25;1659800;85;21219;-85
2021/05/04 00:53:48;;;;;;;1.53;0.60;;;;;;;6.41;56.13;100090.00;1677365;85;21632;-85
2021/05/04 00:56:18;;;;;;;0.67;0.47;;;;;;;6.39;56.32;100095.96;1663638;85;21195;-84
2021/05/04 00:58:49;;;;;;;0.80;0.70;;;;;;;6.40;56.50;100094.95;1656632;84;21490;-85
2021/05/04 01:01:16;;;;;;;0.60;0.60;;;;;;;6.37;56.35;100092.15;1591506;88;21112;-86
2021/05/04 01:03:43;;;;;;;1.17;0.97;;;;;;;6.38;56.56;100096.44;1660700;84;21176;-85
2021/05/04 01:06:10;;;;;;;1.80;1.67;;;;;;;6.39;56.49;100104.72;1649637;84;21220;-84
2021/05/04 01:08:39;;;;;;;1.47;1.30;;;;;;;6.38;56.59;100100.41;1631792;86;21658;-86
2021/05/04 01:11:08;;;;;;;1.30;0.87;;;;;;;6.37;56.65;100092.66;1646087;85;21216;-85
2021/05/04 01:13:36;;;;;;;1.10;0.90;;;;;;;6.36;56.66;100102.39;1630554;86;21212;-87
2021/05/04 01:16:04;;;;;;;5.03;0.80;;;;;;;6.36;56.76;100098.93;1635328;87;21255;-83
2021/05/04 01:18:33;;;;;;;6.87;1.40;;;;;;;6.34;56.87;100090.33;1634318;86;21383;-85
2021/05/04 01:21:00;;;;;;;1.73;1.43;;;;;;;6.30;57.16;100092.98;1639143;86;21148;-88
2021/05/04 01:23:27;;;;;;;1.37;1.30;;;;;;;6.22;57.43;100088.52;1614144;85;21793;-86
2021/05/04 01:25:54;;;;;;;1.33;0.97;;;;;;;6.17;57.48;100088.19;1600726;87;21229;-86
2021/05/04 01:28:22;;;;;;;1.30;1.20;;;;;;;6.11;57.65;100093.64;1599459;87;21229;-87
2021/05/04 01:30:49;;;;;;;1.00;0.87;;;;;;;6.07;57.97;100094.16;1605883;88;21254;-87
2021/05/04 01:33:16;;;;;;;;;;;;;;;6.03;57.98;100097.63;1615634;86;21331;-86
2021/05/04 01:35:42;;;;;;;0.90;0.80;;;;;;;5.99;58.24;100089.19;1635370;86;20273;-86
2021/05/04 01:38:09;;;;;;;;;;;;;;;5.93;58.24;100095.08;1642248;86;21200;-87
2021/05/04 01:40:36;;;;;;;1.70;1.60;;;;;;;5.95;58.22;100093.59;1635902;86;20171;-85
2021/05/04 01:43:02;;;;;;;;;;;;;;;5.91;58.65;100103.67;1636548;86;21601;-86
2021/05/04 01:45:30;;;;;;;1.20;1.10;;;;;;;5.91;58.50;100097.06;1635029;86;20190;-85
2021/05/04 01:47:57;;;;;;;2.23;1.57;;;;;;;5.87;58.47;100097.06;1621848;86;21182;-86
2021/05/04 01:50:24;;;;;;;1.50;1.20;;;;;;;5.68;58.51;100059.03;1620584;86;21197;-81
2021/05/04 01:52:53;;;;;;;1.70;1.60;;;;;;;5.94;58.56;100102.04;1633818;86;22450;-80
2021/05/04 01:55:20;;;;;;;1.20;1.10;;;;;;;5.96;58.68;100105.37;1621353;85;21228;-81
2021/05/04 01:57:47;;;;;;;3.23;1.67;;;;;;;5.97;58.84;100101.75;1632489;86;21350;-80
2021/05/04 02:00:16;;;;;;;;;;;;;;;5.97;58.77;100113.66;1626926;86;21233;-80
2021/05/04 02:02:43;;;;;;;2.03;1.80;;;;;;;5.97;58.83;100100.43;1603165;88;20173;-81
2021/05/04 02:05:13;;;;;;;3.33;2.10;;;;;;;5.93;58.85;100108.81;1592921;88;21227;-81
2021/05/04 02:07:41;;;;;;;2.10;1.80;;;;;;;5.97;58.92;100107.05;1605070;88;21251;-82
2021/05/04 02:10:10;;;;;;;3.33;1.90;;;;;;;5.99;58.91;100110.83;1598477;88;21356;-81
2021/05/04 02:12:41;;;;;;;4.23;1.53;;;;;;;6.02;58.97;100106.03;1633398;85;21054;-79
2021/05/04 02:15:10;;;;;;;2.40;1.87;;;;;;;6.12;58.86;100112.98;1646109;85;21202;-80
2021/05/04 02:17:37;;;;;;;1.70;1.60;;;;;;;6.27;58.64;100108.69;1643896;87;21646;-77
2021/05/04 02:20:07;;;;;;;2.20;2.10;;;;;;;6.33;58.55;100115.98;1645219;85;21154;-78
2021/05/04 02:22:34;;;;;;;2.93;2.60;;;;;;;6.32;58.70;100101.08;1632999;84;21155;-80
2021/05/04 02:25:02;;;;;;;2.57;2.37;;;;;;;6.30;58.71;100112.34;1598778;88;21737;-80
2021/05/04 02:27:30;;;;;;;2.53;2.20;;;;;;;6.31;58.74;100112.67;1600510;89;21218;-77
2021/05/04 02:29:57;;;;;;;2.83;2.17;;;;;;;6.33;58.76;100104.07;1586098;88;21177;-80
2021/05/04 02:32:24;;;;;;;2.07;1.97;;;;;;;6.32;58.89;100110.34;1589588;88;21884;-78
2021/05/04 02:34:51;;;;;;;2.90;2.30;;;;;;;6.32;59.09;100106.38;1579153;87;21715;-79
2021/05/04 02:37:19;;;;;;;2.57;2.37;;;;;;;6.29;59.18;100109.38;1633938;86;21496;-77
2021/05/04 02:39:46;;;;;;;1.93;1.83;;;;;;;6.27;59.20;100102.06;1628189;86;22067;-77
2021/05/04 02:42:14;;;;;;;2.20;2.10;;;;;;;6.27;59.36;100100.74;1624838;86;21351;-81
2021/05/04 02:44:41;;;;;;;3.73;2.30;;;;;;;6.27;59.39;100105.22;1623360;84;21127;-80
2021/05/04 02:47:08;;;;;;;3.57;2.80;;;;;;;6.27;59.66;100103.39;1586543;88;21185;-80
2021/05/04 02:49:37;;;;;;;2.20;2.10;;;;;;;6.29;59.53;100106.73;1587301;89;21230;-78
2021/05/04 02:52:06;;;;;;;2.90;2.70;;;;;;;6.40;59.58;100113.01;1599960;89;21215;-79
2021/05/04 02:54:33;;;;;;;3.27;2.93;;;;;;;6.65;59.17;100106.36;1588287;88;21264;-79
2021/05/04 02:57:00;;;;;;;3.47;2.03;;;;;;;6.97;58.69;100111.25;1620030;87;21815;-80
2021/05/04 02:59:27;;;;;;;1.67;1.57;;;;;;;7.32;57.98;100108.61;1641919;85;21181;-79
2021/05/04 03:01:54;;;;;;;2.40;2.20;;;;;;;7.71;57.00;100113.56;1639610;85;21126;-80
2021/05/04 03:04:21;;;;;;;2.33;2.23;;;;;;;7.87;56.14;100079.45;1649264;86;21335;-80
2021/05/04 03:06:54;;;;;;;2.67;2.47;;;;;;;8.52;54.99;100120.61;1647232;86;21204;-79
2021/05/04 03:09:22;;;;;;;2.47;2.37;;;;;;;8.91;53.40;100115.08;1646963;85;21205;-79
2021/05/04 03:11:49;;;;;;;3.30;2.37;;;;;;;9.14;52.52;100119.47;1645419;85;21066;-79
2021/05/04 03:14:16;;;;;;;4.37;2.23;;;;;;;9.35;52.27;100113.39;1649332;86;21430;-80
2021/05/04 03:16:46;;;;;;;3.33;2.70;;;;;;;9.69;51.52;100122.08;1658112;86;21153;-80
2021/05/04 03:19:14;;;;;;;4.87;2.63;;;;;;;10.10;50.57;100120.67;1643071;86;21169;-78
2021/05/04 03:21:41;;;;;;;2.73;1.77;;;;;;;10.37;49.46;100117.75;1647025;86;21164;-80
2021/05/04 03:24:09;;;;;;;1.43;1.43;;;;;;;10.59;48.66;100125.20;1657484;86;21136;-78
2021/05/04 03:26:36;;;;;;;1.27;1.27;;;;;;;10.88;48.28;100126.02;1654409;86;21214;-80
2021/05/04 03:29:04;;;;;;;2.15;1.75;;;;;;;11.18;47.19;100134.60;1642126;86;21234;-79
2021/05/04 03:31:33;;;;;;;1.57;1.47;;;;;;;11.47;46.88;100134.86;1651042;86;21188;-79
2021/05/04 03:34:00;;;;;;;2.00;1.90;;;;;;;11.45;45.56;100076.01;1630964;86;21105;-81
2021/05/04 03:36:28;;;;;;;1.77;1.55;;;;;;;11.99;45.25;100130.41;1669657;84;21188;-79
2021/05/04 03:38:55;;;;;;;1.32;1.12;;;;;;;12.19;45.01;100136.61;1670099;84;21220;-78
2021/05/04 03:41:24;;;;;;;2.40;1.50;;;;;;;12.50;43.98;100137.04;1667864;84;21468;-79
2021/05/04 03:43:52;;;;;;;4.28;1.22;;;;;;;12.71;43.76;100140.01;1664197;85;21232;-81
2021/05/04 03:46:18;;;;;;;3.77;1.57;;;;;;;12.86;42.76;100141.94;1678644;84;21180;-79
2021/05/04 03:48:46;;;;;;;3.05;1.70;;;;;;;13.01;42.73;100146.54;1664687;84;21191;-79
2021/05/04 03:51:13;;;;;;;3.70;1.67;;;;;;;13.19;42.22;100138.39;1652138;84;21369;-78
2021/05/04 03:53:41;;;;;;;2.05;1.95;;;;;;;13.42;41.97;100133.38;1667014;84;21350;-78
2021/05/04 03:56:10;;;;;;;2.05;1.45;;;;;;;13.59;41.33;100144.44;1675772;83;22111;-80
2021/05/04 03:58:39;;;;;;;1.85;1.42;;;;;;;13.78;41.12;100138.67;1593630;89;21184;-80
2021/05/04 04:01:08;;;;;;;1.87;1.77;;;;;;;14.12;40.47;100133.94;1662670;84;21108;-81
2021/05/04 04:03:35;;;;;;;2.55;1.90;;;;;;;14.30;39.98;100138.57;1654712;84;21362;-81
2021/05/04 04:06:05;;;;;;;3.02;1.85;;;;;;;14.34;39.64;100137.62;1657135;85;21228;-80
2021/05/04 04:08:32;;;;;;;1.72;1.62;;;;;;;14.12;39.73;100136.63;1608910;89;21521;-81
2021/05/04 04:10:59;;;;;;;1.35;1.25;;;;;;;14.05;40.35;100135.84;1614040;87;21207;-81
2021/05/04 04:13:26;;;;;;;1.75;1.57;;;;;;;14.25;39.66;100139.73;1627693;86;21161;-79
2021/05/04 04:15:53;;;;;;;2.30;1.95;;;;;;;14.39;39.37;100141.29;1613627;87;21191;-77
2021/05/04 04:18:20;;;;;;;2.27;1.85;;;;;;;14.18;39.53;100146.50;1618089;87;21662;-80
2021/05/04 04:20:47;;;;;;;2.05;1.95;;;;;;;14.09;39.93;100149.13;1625640;87;21670;-81
2021/05/04 04:23:14;;;;;;;1.67;1.57;;;;;;;14.04;40.14;100138.23;1615895;87;21093;-83
2021/05/04 04:25:41;;;;;;;2.65;2.12;;;;;;;13.98;39.86;100108.28;1614999;87;21168;-81
2021/05/04 04:28:11;;;;;;;2.22;2.02;;;;;;;14.21;39.94;100132.64;1614804;87;21207;-81
2021/05/04 04:30:38;;;;;;;1.77;1.67;;;;;;;14.33;39.64;100128.73;1622046;87;21220;-84
2021/05/04 04:33:05;;;;;;;2.05;1.90;;;;;;;14.73;39.33;100128.95;1624955;87;21276;-82
2021/05/04 04:35:33;;;;;;;1.55;1.47;;;;;;;15.16;39.05;100134.81;1620522;88;21357;-84
2021/05/04 04:38:00;;;;;;;2.65;1.80;;;;;;;15.52;37.92;100129.13;1611812;87;21173;-80
2021/05/04 04:40:35;;;;;;;2.15;1.75;;;;;;;15.75;37.65;100121.22;1620564;87;21209;-93
2021/05/04 04:43:05;;;;;;;1.90;1.80;;;;;;;15.89;36.71;100130.44;1581390;88;21643;-84
2021/05/04 04:45:32;;;;;;;1.92;1.80;;;;;;;15.91;36.68;100129.68;1617665;86;21663;-83
2021/05/04 04:47:59;;;;;;;1.60;1.45;;;;;;;16.00;36.44;100133.69;1611080;87;21256;-82
2021/05/04 04:50:27;;;;;;;3.30;1.55;;;;;;;15.96;36.78;100137.89;1625741;87;21309;-82
2021/05/04 04:53:18;;;;;;;2.02;1.77;;;;;;;15.91;36.66;100122.96;1768361;79;23128;-83
2021/05/04 04:55:46;;;;;;;2.30;2.10;;;;;;;15.67;37.04;100137.63;1770418;80;21238;-82
2021/05/04 04:58:13;;;;;;;1.55;1.45;;;;;;;15.68;37.26;100150.00;1729747;81;21171;-83
2021/05/04 05:00:43;;;;;;;3.65;2.10;;;;;;;15.95;36.79;100151.02;1718801;81;21120;-85
2021/05/04 05:03:10;;;;;;;4.92;2.30;;;;;;;16.07;36.32;100153.23;1708491;81;21199;-82
2021/05/04 05:05:38;;;;;;;8.38;1.80;;;;;;;16.09;36.45;100155.16;1694436;83;21409;-86
2021/05/04 05:08:17;;;;;;;;;;;;;;;;;;;;;
2021/05/04 05:10:57;;;;;;;2.00;1.90;;;;;;;16.11;36.10;100116.77;1764288;79;23042;-83
2021/05/04 05:13:26;;;;;;;3.55;1.90;;;;;;;16.19;36.10;100155.14;1683673;82;21302;-85
2021/05/04 05:15:53;;;;;;;2.37;2.27;;;;;;;16.04;36.20;100148.84;1697414;83;21597;-83
2021/05/04 05:18:20;;;;;;;2.52;2.40;;;;;;;15.68;36.75;100163.44;1677572;84;21219;-83
2021/05/04 05:20:48;;;;;;;2.02;1.92;;;;;;;15.12;37.83;100159.13;1678537;84;21818;-84
2021/05/04 05:23:15;;;;;;;2.45;2.15;;;;;;;14.62;38.96;100167.22;1694193;83;21026;-84
2021/05/04 05:25:42;;;;;;;2.62;2.42;;;;;;;14.05;40.02;100160.48;1636301;86;21219;-85
2021/05/04 05:28:10;;;;;;;2.75;2.58;;;;;;;13.58;41.17;100172.77;1686798;83;21183;-85
2021/05/04 05:30:37;;;;;;;2.65;2.42;;;;;;;13.42;41.47;100165.52;1693885;83;21505;-81
2021/05/04 05:33:04;;;;;;;4.97;2.85;;;;;;;13.48;41.96;100175.08;1686566;83;21783;-85
2021/05/04 05:35:35;;;;;;;2.40;2.15;;;;;;;13.61;41.47;100169.15;1676351;84;21213;-85
2021/05/04 05:38:13;;;;;;;2.87;2.67;;;;;;;13.79;41.16;100162.29;1810460;77;23037;-82
2021/05/04 05:40:41;;;;;;;2.50;2.15;;;;;;;13.72;41.75;100167.67;1771197;79;21197;-86
2021/05/04 05:43:11;;;;;;;2.85;2.65;;;;;;;13.69;42.20;100179.32;1753332;81;21302;-87
2021/05/04 05:45:38;;;;;;;3.12;2.92;;;;;;;13.83;41.44;100175.03;1726189;80;21284;-79
2021/05/04 05:48:05;;;;;;;2.62;2.42;;;;;;;13.76;41.25;100178.78;1716330;82;21730;-83
2021/05/04 05:50:32;;;;;;;3.02;2.85;;;;;;;13.58;41.79;100178.12;1717637;82;21210;-82
2021/05/04 05:52:59;;;;;;;3.58;2.83;;;;;;;13.44;42.07;100176.02;1711442;82;21651;-79
2021/05/04 05:55:26;;;;;;;2.27;2.17;;;;;;;13.15;42.32;100173.30;1737630;80;21560;-82
2021/05/04 05:57:54;;;;;;;3.02;2.62;;;;;;;12.94;42.82;100175.19;1703248;83;21374;-81
2021/05/04 06:00:23;;;;;;;3.42;2.90;;;;;;;12.88;43.15;100167.15;1716424;81;21190;-84
2021/05/04 06:02:52;;;;;;;2.67;2.47;;;;;;;13.05;42.88;100171.03;1694860;83;21176;-81
2021/05/04 06:05:20;;;;;;;2.25;2.02;;;;;;;13.10;42.65;100182.46;1699142;83;21200;-81
2021/05/04 06:07:49;;;;;;;2.70;2.45;;;;;;;13.38;42.86;100175.00;1707454;83;21164;-81
2021/05/04 06:10:16;;;;;;;3.52;3.08;;;;;;;13.58;41.94;100181.64;1704002;83;21203;-81
2021/05/04 06:12:43;;;;;;;2.20;2.10;;;;;;;13.55;41.76;100173.20;1711518;82;21383;-82
2021/05/04 06:15:12;;;;;;;3.30;3.00;;;;;;;13.46;42.38;100171.80;1694092;83;21220;-80
2021/05/04 06:17:39;;;;;;;2.80;2.60;;;;;;;13.57;41.88;100177.83;1672076;83;21169;-82
2021/05/04 06:20:07;;;;;;;3.10;2.85;;;;;;;13.70;42.35;100175.09;1672532;83;21317;-82
2021/05/04 06:22:35;;;;;;;2.42;2.22;;;;;;;13.89;41.80;100182.73;1683770;82;21554;-82
2021/05/04 06:25:02;;;;;;;2.25;2.15;;;;;;;13.92;41.94;100164.05;1685107;83;21690;-81
2021/05/04 06:27:29;;;;;;;2.90;2.30;;;;;;;13.89;41.40;100168.52;1706625;82;21353;-81
2021/05/04 06:29:58;;;;;;;3.37;2.12;;;;;;;13.80;40.94;100166.59;1712527;82;21322;-83
2021/05/04 06:32:26;;;;;;;1.77;1.65;;;;;;;13.44;41.70;100174.15;1713447;82;21202;-82
2021/05/04 06:34:55;;;;;;;3.12;2.85;;;;;;;13.33;41.82;100173.98;1728691;81;21550;-83
2021/05/04 06:37:21;;;;;;;4.85;3.15;;;;;;;13.25;42.07;100175.83;1725746;81;21201;-81
2021/05/04 06:39:48;;;;;;;2.00;1.85;;;;;;;13.03;42.49;100177.95;1726699;82;21208;-83
2021/05/04 06:45:16;;;;;;;2.45;2.30;;;;;;;12.93;42.91;100182.07;1689607;82;21100;-82
2021/05/04 06:47:43;;;;;;;2.02;1.90;;;;;;;12.66;43.40;100184.24;1679320;84;21202;-84
2021/05/04 06:50:13;;;;;;;2.42;2.30;;;;;;;12.52;43.23;100179.91;1675591;84;21365;-84
2021/05/04 06:55:17;;;;;;;1.98;1.85;;;;;;;12.39;43.69;100182.57;1776797;77;38883;-86
2021/05/04 06:57:44;;;;;;;1.92;1.82;;;;;;;12.46;43.25;100194.09;1756439;80;21428;-84
2021/05/04 07:00:13;;;;;;;2.08;1.98;;;;;;;12.19;43.07;100175.87;1752288;80;21224;-82
2021/05/04 07:02:43;;;;;;;2.33;2.20;;;;;;;11.89;44.22;100193.54;1724972;83;21154;-83
2021/05/04 07:05:12;;;;;;;1.82;1.72;;;;;;;11.67;45.07;100198.98;1697728;83;21188;-83
2021/05/04 07:07:39;;;;;;;3.33;3.12;;;;;;;11.69;45.28;100202.80;1704997;83;21834;-81
2021/05/04 07:10:21;;;;;;;3.43;3.23;;;;;;;11.73;45.43;100197.89;1785724;78;22835;-82
2021/05/04 07:12:48;;;;;;;3.17;2.80;;;;;;;11.67;45.65;100200.84;1700719;81;21149;-81
2021/05/04 07:15:15;;;;;;;2.92;2.17;;;;;;;11.56;45.60;100206.74;1657268;85;21712;-82
2021/05/04 07:17:54;;;;;;;;;;;;;;;;;;;;;
2021/05/04 07:20:26;;;;;;;2.05;1.55;;;;;;;11.49;45.84;100192.05;1858178;75;23180;-85
2021/05/04 07:22:57;;;;;;;2.65;2.45;;;;;;;11.44;45.51;100204.63;1779407;79;22112;-82
2021/05/04 07:25:24;;;;;;;1.95;1.82;;;;;;;11.45;45.19;100200.95;1755623;80;21193;-85
2021/05/04 07:27:53;;;;;;;3.42;3.12;;;;;;;11.43;45.21;100200.33;1765042;80;21187;-83
2021/05/04 07:30:20;;;;;;;1.98;1.87;;;;;;;11.43;45.05;100203.00;1760165;80;21202;-83
2021/05/04 07:32:48;;;;;;;2.80;2.45;;;;;;;11.47;45.09;100213.59;1694310;83;21406;-82
2021/05/04 07:35:15;;;;;;;2.30;2.10;;;;;;;11.55;45.55;100213.12;1667437;84;21186;-84
2021/05/04 07:37:45;;;;;;;1.63;1.60;;;;;;;11.65;45.71;100216.23;1697801;83;21640;-84
2021/05/04 07:40:12;;;;;;;2.47;2.27;;;;;;;11.81;45.49;100223.07;1691457;83;21254;-83
2021/05/04 07:42:39;;;;;;;1.55;1.45;;;;;;;11.96;44.94;100230.97;1672418;84;21381;-84
2021/05/04 07:45:08;;;;;;;1.67;1.57;;;;;;;12.10;44.46;100220.66;1692211;83;21530;-83
2021/05/04 07:47:36;;;;;;;1.87;1.77;;;;;;;12.12;43.89;100219.13;1668043;84;21196;-83
2021/05/04 07:50:05;;;;;;;1.63;1.53;;;;;;;12.00;44.28;100231.72;1661944;85;21790;-85
2021/05/04 07:52:32;;;;;;;1.30;1.27;;;;;;;11.90;44.43;100224.58;1675678;84;21361;-89
2021/05/04 07:54:59;;;;;;;2.98;1.22;;;;;;;11.90;44.05;100227.77;1656498;85;21210;-86
2021/05/04 07:57:27;;;;;;;1.75;1.47;;;;;;;11.83;43.71;100230.41;1622236;85;21145;-84
2021/05/04 07:59:55;;;;;;;1.60;1.50;;;;;;;11.81;43.34;100230.59;1615091;87;21200;-83
2021/05/04 08:02:22;;;;;;;1.13;1.13;;;;;;;11.79;43.35;100231.30;1660398;85;21114;-84
2021/05/04 08:04:50;;;;;;;1.70;1.60;;;;;;;11.76;42.92;100227.69;1639333;86;21205;-87
2021/05/04 08:07:18;;;;;;;2.10;2.00;;;;;;;11.61;43.61;100221.14;1659447;85;21181;-89
2021/05/04 08:09:54;;;;;;;2.45;1.30;;;;;;;11.54;44.01;100224.80;1684183;84;21219;-85
2021/05/04 08:12:22;;;;;;;2.00;1.90;;;;;;;11.27;44.86;100234.00;1686547;83;21230;-85
2021/05/04 08:14:49;;;;;;;3.23;1.73;;;;;;;11.10;45.45;100230.28;1695412;83;21228;-84
2021/05/04 08:17:20;;;;;;;1.33;1.23;;;;;;;11.08;44.98;100226.98;1694511;83;21331;-84
2021/05/04 08:19:48;;;;;;;2.20;1.40;;;;;;;11.02;44.79;100242.44;1702099;83;21771;-84
2021/05/04 08:22:15;;;;;;;1.83;1.73;;;;;;;10.85;44.79;100245.05;1701601;83;21191;-84
2021/05/04 08:24:43;;;;;;;1.17;1.07;;;;;;;10.64;46.01;100242.74;1675188;84;21223;-84
2021/05/04 08:27:10;;;;;;;1.30;1.20;;;;;;;10.57;46.03;100244.52;1672853;84;21223;-84
2021/05/04 08:29:37;;;;;;;1.73;1.60;;;;;;;10.53;46.14;100235.26;1675406;84;21238;-85
2021/05/04 08:32:05;;;;;;;1.33;1.13;;;;;;;10.57;46.14;100245.00;1691759;83;21272;-83
2021/05/04 08:34:32;;;;;;;1.20;0.90;;;;;;;10.66;45.30;100244.70;1662028;84;21120;-83
2021/05/04 08:37:02;;;;;;;1.53;1.20;;;;;;;10.83;44.48;100235.09;1656706;85;21166;-84
2021/05/04 08:39:28;;;;;;;1.10;1.10;;;;;;;11.00;44.37;100252.97;1679926;84;21209;-84
2021/05/04 08:41:55;;;;;;;1.97;1.70;;;;;;;11.14;44.12;100236.58;1677195;84;21193;-85
2021/05/04 08:44:22;;;;;;;2.17;1.10;;;;;;;11.00;43.80;100198.30;1670095;84;22030;-85
2021/05/04 08:46:50;;;;;;;2.30;1.80;;;;;;;11.17;43.68;100238.83;1662034;85;21197;-84
2021/05/04 08:49:20;;;;;;;1.80;1.70;;;;;;;11.12;43.85;100244.77;1662653;85;22710;-85
2021/05/04 08:51:50;;;;;;;1.07;1.07;;;;;;;11.03;44.31;100245.41;1652693;85;21537;-83
2021/05/04 08:54:18;;;;;;;1.87;1.67;;;;;;;10.96;44.49;100249.05;1674948;84;21208;-83
2021/05/04 08:56:45;;;;;;;2.63;1.60;;;;;;;10.94;44.70;100253.23;1650633;85;21107;-86
2021/05/04 08:59:14;;;;;;;4.70;2.73;;;;;;;10.89;45.01;100263.16;1674446;84;21657;-84
2021/05/04 09:01:41;;;;;;;1.67;1.57;;;;;;;10.82;45.34;100265.45;1675412;84;21547;-83
2021/05/04 09:07:30;;;;;;;1.30;1.10;;;;;;;10.51;45.72;100255.42;1804716;78;23035;-83
2021/05/04 09:13:04;;;;;;;2.00;1.90;;;;;;;10.19;46.29;100261.18;1699121;83;21104;-84
2021/05/04 09:21:30;;;;;;;1.70;1.60;;;;;;;9.96;46.72;100266.65;1682155;84;21346;-85
2021/05/04 09:23:58;;;;;;;2.63;2.40;;;;;;;9.84;47.66;100269.78;1647589;84;21526;-90
2021/05/04 09:26:35;;;;;;;3.80;1.60;;;;;;;9.81;47.79;100268.00;1651110;85;21377;-90
2021/05/04 09:29:09;;;;;;;1.77;1.67;;;;;;;9.81;48.14;100264.82;1687097;84;21357;-87
2021/05/04 09:31:39;;;;;;;1.40;1.30;;;;;;;9.94;47.92;100274.81;1683885;84;21206;-90
2021/05/04 09:34:11;;;;;;;3.10;1.57;;;;;;;10.04;47.51;100253.22;1662464;83;21134;-87
2021/05/04 09:36:48;;;;;;;2.33;1.20;;;;;;;10.15;47.03;100260.73;1651698;85;21825;-86
2021/05/04 09:39:28;;;;;;;1.98;1.45;;;;;;;10.23;47.35;100255.82;1647166;85;21362;-87
2021/05/04 09:43:37;;;;;;;2.50;1.73;;;;;;;10.50;46.42;100251.09;1765405;79;22966;-87
2021/05/04 09:46:04;;;;;;;1.37;1.10;;;;;;;10.59;45.99;100260.32;1728642;82;22083;-88
2021/05/04 09:48:34;;;;;;;2.40;1.47;;;;;;;10.69;45.46;100250.97;1722466;82;22349;-87
2021/05/04 09:51:14;;;;;;;1.17;1.07;;;;;;;10.77;44.99;100257.19;1720508;82;21348;-87
2021/05/04 09:56:35;;;;;;;0.83;0.83;;;;;;;10.84;45.19;100258.08;1704941;81;21113;-88
2021/05/04 09:59:04;;;;;;;1.73;1.57;;;;;;;10.82;45.45;100258.78;1693041;83;21198;-88
2021/05/04 10:01:32;;;;;;;1.10;1.00;;;;;;;10.81;45.30;100263.30;1670969;82;21123;-87
2021/05/04 10:04:04;;;;;;;1.47;1.03;;;;;;;10.84;45.32;100260.75;1650216;85;21606;-89
2021/05/04 10:06:31;;;;;;;1.83;0.93;;;;;;;10.87;45.18;100251.86;1648934;85;21643;-91
2021/05/04 10:09:00;;;;;;;1.33;1.23;;;;;;;10.91;45.06;100236.30;1661962;85;21219;-89
2021/05/04 10:11:28;;;;;;;1.20;1.07;;;;;;;10.98;44.54;100241.67;1650700;84;21244;-85
2021/05/04 10:13:59;;;;;;;1.57;1.30;;;;;;;11.09;44.51;100237.14;1637739;87;21635;-88
2021/05/04 10:16:29;;;;;;;1.83;0.63;;;;;;;11.20;44.40;100231.27;1651352;85;21300;-90
2021/05/04 10:19:00;;;;;;;0.60;0.60;;;;;;;11.33;43.91;100232.39;1640663;85;21270;-87
2021/05/04 10:21:29;;;;;;;1.17;1.07;;;;;;;11.36;43.74;100228.82;1651388;85;21250;-87
2021/05/04 10:23:56;;;;;;;1.17;1.07;;;;;;;11.40;43.78;100232.74;1624788;84;21120;-87
2021/05/04 10:26:30;;;;;;;3.23;1.10;;;;;;;11.48;43.85;100227.23;1618194;87;21204;-88
2021/05/04 10:29:05;;;;;;;0.97;0.50;;;;;;;11.64;42.84;100223.92;1611285;87;21196;-88
2021/05/04 10:31:39;;;;;;;0.87;0.87;;;;;;;11.79;41.40;100223.30;1615870;87;21240;-87
2021/05/04 10:34:35;;;;;;;0.70;0.70;;;;;;;11.85;41.20;100221.16;1636947;83;21575;-86
2021/05/04 10:37:16;;;;;;;1.33;0.87;;;;;;;11.82;41.46;100216.72;1678507;83;21218;-90
2021/05/04 10:39:46;;;;;;;1.17;0.70;;;;;;;11.81;41.95;100227.92;1686418;83;21486;-88
2021/05/04 10:42:36;;;;;;;0.60;0.50;;;;;;;11.79;42.07;100230.45;1669787;84;21335;-90
2021/05/04 10:45:07;;;;;;;1.00;0.90;;;;;;;11.74;42.31;100232.92;1626527;85;21128;-89
2021/05/04 10:47:46;;;;;;;0.63;0.43;;;;;;;11.70;42.48;100224.48;1656238;85;21165;-89
2021/05/04 10:50:23;;;;;;;0.70;0.70;;;;;;;11.66;41.76;100228.06;1641060;85;21217;-91
2021/05/04 10:53:00;;;;;;;1.87;0.43;;;;;;;11.49;41.75;100186.70;1626738;86;21364;-89
2021/05/04 10:55:53;;;;;;;0.78;0.50;;;;;;;11.69;41.70;100214.81;1640462;85;21260;-88
2021/05/04 10:58:25;;;;;;;2.87;0.57;;;;;;;11.79;41.95;100221.11;1652640;85;21217;-90
2021/05/04 11:01:02;;;;;;;0.67;0.67;;;;;;;11.87;41.99;100217.77;1673838;84;21053;-89
2021/05/04 11:03:35;;;;;;;1.62;0.40;;;;;;;11.97;41.61;100206.73;1692321;83;21189;-88
2021/05/04 11:06:23;;;;;;;0.53;0.40;;;;;;;12.10;41.32;100205.95;1692880;83;21335;-90
2021/05/04 11:08:55;;;;;;;;;;;;;;;12.29;40.33;100211.55;1645979;86;21249;-92
2021/05/04 11:11:40;;;;;;;0.30;0.30;;;;;;;12.45;40.26;100202.64;1670354;83;20297;-88
2021/05/04 11:14:16;;;;;;;0.40;0.30;;;;;;;12.52;39.07;100213.33;1628619;86;21186;-88
2021/05/04 11:16:56;;;;;;;2.05;0.93;;;;;;;12.61;38.81;100215.30;1656525;86;21347;-88
2021/05/04 11:19:29;;;;;;;0.50;0.30;;;;;;;12.69;38.74;100212.94;1650252;85;21343;-88
2021/05/04 11:22:13;;;;;;;0.75;0.50;;;;;;;12.66;38.51;100210.98;1646066;85;21655;-90
2021/05/04 11:24:53;;;;;;;0.45;0.40;;;;;;;12.62;39.15;100222.27;1653347;85;21707;-88
2021/05/04 11:27:29;;;;;;;2.08;0.68;;;;;;;12.57;39.86;100221.56;1653456;85;21224;-89
2021/05/04 11:29:59;;;;;;;0.40;0.40;;;;;;;12.44;39.74;100214.34;1645790;85;21256;-90
2021/05/04 11:32:44;;;;;;;0.88;0.42;;;;;;;12.43;40.16;100211.88;1642748;85;21225;-90
2021/05/04 11:35:14;;;;;;;0.35;0.30;;;;;;;12.51;40.16;100204.16;1653555;85;21165;-89
2021/05/04 11:37:48;;;;;;;0.30;0.30;;;;;;;12.61;39.67;100216.11;1692813;83;21338;-87
2021/05/04 11:40:24;;;;;;;0.37;0.37;;;;;;;12.70;39.55;100214.07;1680762;83;21196;-81
2021/05/04 11:42:56;;;;;;;2.27;0.50;;;;;;;12.79;39.51;100211.51;1686738;83;21263;-85
2021/05/04 11:45:29;;;;;;;0.40;0.40;;;;;;;12.83;38.91;100209.25;1664363;83;21519;-85
2021/05/04 11:48:04;;;;;;;1.75;0.55;;;;;;;12.80;38.93;100205.11;1656881;85;21195;-85
2021/05/04 11:50:34;;;;;;;0.50;0.30;;;;;;;12.77;38.95;100208.70;1668732;84;21227;-86
2021/05/04 11:53:09;;;;;;;2.15;0.68;;;;;;;12.69;38.59;100197.70;1675756;85;21176;-91
2021/05/04 11:55:40;;;;;;;0.30;0.30;;;;;;;12.68;38.23;100194.73;1664037;84;21265;-87
2021/05/04 11:58:18;;;;;;;0.20;0.10;;;;;;;12.69;38.34;100192.36;1587626;89;21347;-90
2021/05/04 12:00:46;;;;;;;0.30;0.30;;;;;;;12.77;38.34;100191.33;1652367;85;21134;-90
2021/05/04 12:03:17;;;;;;;0.20;0.20;;;;;;;12.87;37.86;100190.41;1659202;85;21556;-89
2021/05/04 12:05:47;;;;;;;6.60;0.28;;;;;;;12.98;37.20;100189.78;1650497;85;21222;-94